createdAt,value
2022-08-26T03:17:37.133Z,15.30
2022-08-26T03:20:08.836Z,15.30
2022-08-26T03:22:38.704Z,15.30
2022-08-26T03:25:10.056Z,15.30
2022-08-26T03:27:38.249Z,15.20
2022-08-26T03:30:26.324Z,15.20
2022-08-26T03:32:56.157Z,15.10
2022-08-26T03:35:25.654Z,15.00
2022-08-26T03:37:54.283Z,14.90
2022-08-26T03:40:23.299Z,14.90
2022-08-26T03:42:52.089Z,14.90
2022-08-26T03:45:21.933Z,14.90
2022-08-26T03:47:50.104Z,14.90
2022-08-26T03:50:22.801Z,14.80
2022-08-26T03:52:52.478Z,14.90
2022-08-26T03:55:24.056Z,14.80
2022-08-26T03:57:52.244Z,14.80
2022-08-26T04:00:20.929Z,14.80
2022-08-26T04:02:53.164Z,14.90
2022-08-26T04:05:25.467Z,14.90
2022-08-26T04:07:54.177Z,15.00
2022-08-26T04:10:28.751Z,15.00
2022-08-26T04:12:58.866Z,15.10
2022-08-26T04:15:28.156Z,15.10
2022-08-26T04:17:57.502Z,15.10
2022-08-26T04:20:27.455Z,15.20
2022-08-26T04:22:56.374Z,15.30
2022-08-26T04:25:25.342Z,15.30
2022-08-26T04:27:53.784Z,15.20
2022-08-26T04:30:22.329Z,15.40
2022-08-26T04:32:50.463Z,15.50
2022-08-26T04:35:20.909Z,15.50
2022-08-26T04:37:55.615Z,15.60
2022-08-26T04:40:24.671Z,15.70
2022-08-26T04:42:54.013Z,15.70
2022-08-26T04:45:22.941Z,15.90
2022-08-26T04:47:54.755Z,16.00
2022-08-26T04:50:23.690Z,16.00
2022-08-26T04:52:55.399Z,16.10
2022-08-26T04:55:37.284Z,16.20
2022-08-26T04:58:10.356Z,16.30
2022-08-26T05:00:39.483Z,16.40
2022-08-26T05:03:10.482Z,16.50
2022-08-26T05:05:41.230Z,16.70
2022-08-26T05:08:12.115Z,16.70
2022-08-26T05:10:42.096Z,16.80
2022-08-26T05:13:14.231Z,17.00
2022-08-26T05:15:44.622Z,17.10
2022-08-26T05:18:17.162Z,17.20
2022-08-26T05:20:54.526Z,17.30
2022-08-26T05:23:25.566Z,17.50
2022-08-26T05:25:59.415Z,17.80
2022-08-26T05:28:29.982Z,17.90
2022-08-26T05:30:58.344Z,18.00
2022-08-26T05:33:26.534Z,18.20
2022-08-26T05:35:55.097Z,18.60
2022-08-26T05:38:24.751Z,18.70
2022-08-26T05:40:54.934Z,18.90
2022-08-26T05:43:24.225Z,19.10
2022-08-26T05:45:53.031Z,19.40
2022-08-26T05:48:22.747Z,19.70
2022-08-26T05:50:54.257Z,20.20
2022-08-26T05:53:26.246Z,20.90
2022-08-26T05:55:55.845Z,21.90
2022-08-26T05:58:25.223Z,22.80
2022-08-26T06:01:02.474Z,23.30
2022-08-26T06:03:33.405Z,24.30
2022-08-26T06:06:06.056Z,25.00
2022-08-26T06:08:36.882Z,25.40
2022-08-26T06:11:08.499Z,25.60
2022-08-26T06:13:47.271Z,25.90
2022-08-26T06:16:18.194Z,25.30
2022-08-26T06:18:48.560Z,24.80
2022-08-26T06:21:19.493Z,24.90
2022-08-26T06:24:08.346Z,25.00
2022-08-26T06:26:37.550Z,25.40
2022-08-26T06:29:07.733Z,26.50
2022-08-26T06:31:37.531Z,26.60
2022-08-26T06:34:10.721Z,27.00
2022-08-26T06:36:42.024Z,27.20
2022-08-26T06:39:15.428Z,27.70
2022-08-26T06:41:45.090Z,28.20
2022-08-26T06:44:19.471Z,28.40
2022-08-26T06:46:50.380Z,29.30
2022-08-26T06:49:25.637Z,29.50
2022-08-26T06:51:58.351Z,30.00
2022-08-26T06:54:28.831Z,30.20
2022-08-26T06:56:57.549Z,30.10
2022-08-26T06:59:26.183Z,30.10
2022-08-26T07:01:55.107Z,30.10
2022-08-26T07:04:25.009Z,29.40
2022-08-26T07:06:56.567Z,29.80
2022-08-26T07:09:30.402Z,29.60
2022-08-26T07:11:58.859Z,30.20
2022-08-26T07:14:27.250Z,30.40
2022-08-26T07:16:56.073Z,30.00
2022-08-26T07:19:31.015Z,29.80
2022-08-26T07:22:02.067Z,30.30
2022-08-26T07:24:33.655Z,30.50
2022-08-26T07:27:06.743Z,30.60
2022-08-26T07:29:35.644Z,30.60
2022-08-26T07:32:04.955Z,30.40
2022-08-26T07:34:33.376Z,29.20
2022-08-26T07:37:02.109Z,30.00
2022-08-26T07:39:31.666Z,30.00
2022-08-26T07:42:07.582Z,29.50
2022-08-26T07:44:37.283Z,29.70
2022-08-26T07:47:10.191Z,29.50
2022-08-26T07:49:47.522Z,30.20
2022-08-26T07:52:25.904Z,30.50
2022-08-26T07:54:54.646Z,30.30
2022-08-26T07:57:24.420Z,30.40
2022-08-26T07:59:54.084Z,29.80
2022-08-26T08:02:24.781Z,30.00
2022-08-26T08:04:53.094Z,29.60
2022-08-26T08:07:21.490Z,30.30
2022-08-26T08:10:11.596Z,30.50
2022-08-26T08:12:42.134Z,30.80
2022-08-26T08:15:13.922Z,31.20
2022-08-26T08:17:42.989Z,31.30
2022-08-26T08:20:12.533Z,31.50
2022-08-26T08:22:41.307Z,31.00
2022-08-26T08:25:10.550Z,30.40
2022-08-26T08:27:43.168Z,30.80
2022-08-26T08:30:13.759Z,31.10
2022-08-26T08:32:43.620Z,31.20
2022-08-26T08:35:13.907Z,31.80
2022-08-26T08:37:43.690Z,32.20
2022-08-26T08:40:17.436Z,32.50
2022-08-26T08:45:26.837Z,32.00
2022-08-26T08:47:58.540Z,32.40
2022-08-26T08:50:30.872Z,32.70
2022-08-26T08:53:09.234Z,32.90
2022-08-26T08:55:48.448Z,32.60
2022-08-26T08:58:22.203Z,32.10
2022-08-26T09:00:55.451Z,31.90
2022-08-26T09:03:37.857Z,31.90
2022-08-26T09:06:17.036Z,31.80
2022-08-26T09:08:47.118Z,31.20
2022-08-26T09:11:20.864Z,31.00
2022-08-26T09:13:53.481Z,31.30
2022-08-26T09:16:27.771Z,31.10
2022-08-26T09:19:08.138Z,31.30
2022-08-26T09:21:36.930Z,31.60
2022-08-26T09:24:05.937Z,32.10
2022-08-26T09:26:47.286Z,32.20
2022-08-26T09:29:23.496Z,32.00
2022-08-26T09:31:52.851Z,32.00
2022-08-26T09:34:25.882Z,32.00
2022-08-26T09:36:55.940Z,31.70
2022-08-26T09:39:31.850Z,31.50
2022-08-26T09:42:09.450Z,31.10
2022-08-26T09:44:55.745Z,31.10
2022-08-26T09:47:28.255Z,31.00
2022-08-26T09:50:04.618Z,31.10
2022-08-26T09:52:38.268Z,30.80
2022-08-26T09:55:21.609Z,31.10
2022-08-26T09:57:51.666Z,30.90
2022-08-26T10:00:31.519Z,30.80
2022-08-26T10:03:01.418Z,31.10
2022-08-26T10:05:42.201Z,31.20
2022-08-26T10:08:24.347Z,31.40
2022-08-26T10:10:53.740Z,31.60
2022-08-26T10:13:29.577Z,31.60
2022-08-26T10:16:12.000Z,31.30
2022-08-26T10:18:44.878Z,31.20
2022-08-26T10:21:18.055Z,30.90
2022-08-26T10:23:49.478Z,31.00
2022-08-26T10:26:24.023Z,31.00
2022-08-26T10:28:57.857Z,30.90
2022-08-26T10:31:30.258Z,30.90
2022-08-26T10:34:07.033Z,31.00
2022-08-26T10:39:44.544Z,30.90
2022-08-26T10:42:22.434Z,31.10
2022-08-26T10:44:58.742Z,31.40
2022-08-26T10:47:33.767Z,31.40
2022-08-26T10:50:03.686Z,31.80
2022-08-26T10:52:44.782Z,32.00
2022-08-26T10:55:19.737Z,32.10
2022-08-26T10:57:54.734Z,32.60
2022-08-26T11:00:47.098Z,33.20
2022-08-26T11:03:40.096Z,33.00
2022-08-26T11:06:25.864Z,33.60
2022-08-26T11:08:56.860Z,33.30
2022-08-26T11:11:49.174Z,33.40
2022-08-26T11:14:44.644Z,33.60
2022-08-26T11:17:56.481Z,33.70
2022-08-26T11:20:36.652Z,33.30
2022-08-26T11:23:50.545Z,33.00
2022-08-26T11:26:36.050Z,33.00
2022-08-26T11:29:13.537Z,32.90
2022-08-26T11:31:56.875Z,33.10
2022-08-26T11:34:52.319Z,32.80
2022-08-26T11:37:23.452Z,32.80
2022-08-26T11:39:57.087Z,32.50
2022-08-26T11:42:33.264Z,32.40
2022-08-26T11:45:05.648Z,32.50
2022-08-26T11:47:34.048Z,32.40
2022-08-26T11:50:15.363Z,32.60
2022-08-26T11:52:54.124Z,32.50
2022-08-26T11:55:24.071Z,32.40
2022-08-26T11:57:55.257Z,32.30
2022-08-26T12:00:26.537Z,31.70
2022-08-26T12:02:55.774Z,31.40
2022-08-26T12:05:31.046Z,31.40
2022-08-26T12:08:07.418Z,31.50
2022-08-26T12:10:36.681Z,31.70
2022-08-26T12:13:07.254Z,31.40
2022-08-26T12:15:36.559Z,31.10
2022-08-26T12:18:28.963Z,31.00
2022-08-26T12:21:00.903Z,31.10
2022-08-26T12:23:44.616Z,31.00
2022-08-26T12:26:20.845Z,31.10
2022-08-26T12:28:51.669Z,31.20
2022-08-26T12:31:27.892Z,31.30
2022-08-26T12:33:59.247Z,31.60
2022-08-26T12:36:31.737Z,31.80
2022-08-26T12:39:10.265Z,31.90
2022-08-26T12:41:46.527Z,32.20
2022-08-26T12:44:39.336Z,32.40
2022-08-26T12:47:10.906Z,32.30
2022-08-26T12:49:40.771Z,32.30
2022-08-26T12:52:30.082Z,32.30
2022-08-26T12:55:02.582Z,32.20
2022-08-26T12:57:35.275Z,32.30
2022-08-26T13:00:28.388Z,32.40
2022-08-26T13:02:56.944Z,32.20
2022-08-26T13:05:28.750Z,32.20
2022-08-26T13:08:15.512Z,32.20
2022-08-26T13:10:47.338Z,32.30
2022-08-26T13:13:15.591Z,32.40
2022-08-26T13:15:44.385Z,32.50
2022-08-26T13:18:12.675Z,32.50
2022-08-26T13:20:44.848Z,32.60
2022-08-26T13:23:13.526Z,32.80
2022-08-26T13:25:42.002Z,32.70
2022-08-26T13:28:11.765Z,32.60
2022-08-26T13:30:40.533Z,32.60
2022-08-26T13:33:10.048Z,32.70
2022-08-26T13:35:40.713Z,32.60
2022-08-26T13:38:18.579Z,32.40
2022-08-26T13:41:02.683Z,32.40
2022-08-26T13:43:32.563Z,32.20
2022-08-26T13:46:01.615Z,32.10
2022-08-26T13:48:29.956Z,32.00
2022-08-26T13:50:58.217Z,32.00
2022-08-26T13:53:26.414Z,31.90
2022-08-26T13:55:54.693Z,31.80
2022-08-26T13:58:22.922Z,31.80
2022-08-26T14:00:55.848Z,31.60
2022-08-26T14:03:24.737Z,31.60
2022-08-26T14:05:53.514Z,31.70
2022-08-26T14:08:22.140Z,31.60
2022-08-26T14:10:50.672Z,31.60
2022-08-26T14:13:19.535Z,31.60
2022-08-26T14:15:48.069Z,31.60
2022-08-26T14:18:20.190Z,31.60
2022-08-26T14:20:52.327Z,31.60
2022-08-26T14:23:20.731Z,31.50
2022-08-26T14:25:49.039Z,31.60
2022-08-26T14:28:17.283Z,31.50
2022-08-26T14:30:48.640Z,31.50
2022-08-26T14:33:21.132Z,31.50
2022-08-26T14:35:49.950Z,31.40
2022-08-26T14:38:18.279Z,31.30
2022-08-26T14:40:46.618Z,31.30
2022-08-26T14:43:16.252Z,31.20
2022-08-26T14:45:45.784Z,31.10
2022-08-26T14:48:14.228Z,31.00
2022-08-26T14:50:43.787Z,31.00
2022-08-26T14:53:29.701Z,30.80
2022-08-26T14:55:57.896Z,30.70
2022-08-26T14:58:26.099Z,30.70
2022-08-26T15:01:04.254Z,30.70
2022-08-26T15:03:33.137Z,30.70
2022-08-26T15:06:02.751Z,30.70
2022-08-26T15:08:33.262Z,30.80
2022-08-26T15:11:01.590Z,30.70
2022-08-26T15:13:29.760Z,30.70
2022-08-26T15:15:58.191Z,30.70
2022-08-26T15:18:26.453Z,30.60
2022-08-26T15:20:54.657Z,30.60
2022-08-26T15:23:24.316Z,30.60
2022-08-26T15:25:52.513Z,30.60
2022-08-26T15:28:20.703Z,30.50
2022-08-26T15:30:51.280Z,30.50
2022-08-26T15:33:19.620Z,30.40
2022-08-26T15:35:47.792Z,30.20
2022-08-26T15:38:15.985Z,30.20
2022-08-26T15:40:45.529Z,30.20
2022-08-26T15:43:27.841Z,30.20
2022-08-26T15:45:56.912Z,30.10
2022-08-26T15:48:25.590Z,29.90
2022-08-26T15:50:56.441Z,29.90
2022-08-26T15:53:25.385Z,29.80
2022-08-26T15:55:56.730Z,29.80
2022-08-26T15:58:27.263Z,29.50
2022-08-26T16:00:56.411Z,29.40
2022-08-26T16:03:24.921Z,29.30
2022-08-26T16:05:53.532Z,29.10
2022-08-26T16:08:22.456Z,28.90
2022-08-26T16:10:51.421Z,28.80
2022-08-26T16:13:21.654Z,28.70
2022-08-26T16:15:50.314Z,28.60
2022-08-26T16:18:20.505Z,28.60
2022-08-26T16:21:12.321Z,28.50
2022-08-26T16:23:45.007Z,28.30
2022-08-26T16:26:16.479Z,28.20
2022-08-26T16:28:46.805Z,28.10
2022-08-26T16:31:16.274Z,27.90
2022-08-26T16:33:44.979Z,28.00
2022-08-26T16:36:14.252Z,27.90
2022-08-26T16:38:43.141Z,27.80
2022-08-26T16:41:11.470Z,27.70
2022-08-26T16:43:39.833Z,27.60
2022-08-26T16:46:11.377Z,27.50
2022-08-26T16:48:40.349Z,27.30
2022-08-26T16:51:12.350Z,27.20
2022-08-26T16:53:41.241Z,27.10
2022-08-26T16:56:14.196Z,26.90
2022-08-26T16:58:42.875Z,26.80
2022-08-26T17:01:12.674Z,26.60
2022-08-26T17:03:41.380Z,26.50
2022-08-26T17:06:12.419Z,26.40
2022-08-26T17:08:41.982Z,26.20
2022-08-26T17:11:12.793Z,26.20
2022-08-26T17:13:43.562Z,25.90
2022-08-26T17:16:15.749Z,25.80
2022-08-26T17:18:47.502Z,25.70
2022-08-26T17:21:16.341Z,25.50
2022-08-26T17:23:48.702Z,25.30
2022-08-26T17:26:19.032Z,25.20
2022-08-26T17:28:47.437Z,25.10
2022-08-26T17:31:17.161Z,25.00
2022-08-26T17:33:48.894Z,24.90
2022-08-26T17:36:22.491Z,24.80
2022-08-26T17:38:50.876Z,24.60
2022-08-26T17:41:22.895Z,24.50
2022-08-26T17:43:51.206Z,24.30
2022-08-26T17:46:20.934Z,24.20
2022-08-26T17:48:50.563Z,24.10
2022-08-26T17:51:20.333Z,24.00
2022-08-26T17:53:49.119Z,23.90
2022-08-26T17:56:21.157Z,23.70
2022-08-26T17:58:51.849Z,23.60
2022-08-26T18:01:22.501Z,23.50
2022-08-26T18:03:51.171Z,23.40
2022-08-26T18:06:20.732Z,23.30
2022-08-26T18:08:49.030Z,23.20
2022-08-26T18:11:20.296Z,23.10
2022-08-26T18:13:48.866Z,23.00
2022-08-26T18:16:18.916Z,22.90
2022-08-26T18:18:51.834Z,22.80
2022-08-26T18:21:22.255Z,22.70
2022-08-26T18:23:51.405Z,22.60
2022-08-26T18:26:21.553Z,22.50
2022-08-26T18:28:49.934Z,22.50
2022-08-26T18:31:18.600Z,22.40
2022-08-26T18:33:48.498Z,22.20
2022-08-26T18:36:18.527Z,22.30
2022-08-26T18:38:48.007Z,22.20
2022-08-26T18:41:20.862Z,22.10
2022-08-26T18:43:50.500Z,22.10
2022-08-26T18:46:20.048Z,22.00
2022-08-26T18:48:51.224Z,21.90
2022-08-26T18:51:21.804Z,21.90
2022-08-26T18:53:50.156Z,21.80
2022-08-26T18:56:18.906Z,21.80
2022-08-26T18:58:47.542Z,21.60
2022-08-26T19:01:16.700Z,21.60
2022-08-26T19:03:45.946Z,21.60
2022-08-26T19:06:16.824Z,21.50
2022-08-26T19:08:44.991Z,21.40
2022-08-26T19:11:14.046Z,21.30
2022-08-26T19:13:42.336Z,21.20
2022-08-26T19:16:16.732Z,21.20
2022-08-26T19:18:45.078Z,21.10
2022-08-26T19:21:13.320Z,21.10
2022-08-26T19:23:43.318Z,21.00
2022-08-26T19:26:12.419Z,21.00
2022-08-26T19:28:41.284Z,20.90
2022-08-26T19:31:11.407Z,20.90
2022-08-26T19:33:40.630Z,20.80
2022-08-26T19:36:14.708Z,20.80
2022-08-26T19:38:45.068Z,20.80
2022-08-26T19:41:14.874Z,20.70
2022-08-26T19:43:43.255Z,20.70
2022-08-26T19:46:17.631Z,20.70
2022-08-26T19:48:47.267Z,20.60
2022-08-26T19:51:17.002Z,20.60
2022-08-26T19:53:48.284Z,20.60
2022-08-26T19:56:17.667Z,20.50
2022-08-26T19:58:46.663Z,20.40
2022-08-26T20:01:15.743Z,20.40
2022-08-26T20:03:44.846Z,20.30
2022-08-26T20:06:14.577Z,20.20
2022-08-26T20:08:43.730Z,20.20
2022-08-26T20:11:16.254Z,20.20
2022-08-26T20:13:46.800Z,20.10
2022-08-26T20:16:16.096Z,20.10
2022-08-26T20:19:03.249Z,20.00
2022-08-26T20:21:35.678Z,20.00
2022-08-26T20:24:08.435Z,19.90
2022-08-26T20:26:39.800Z,19.90
2022-08-26T20:29:09.540Z,19.90
2022-08-26T20:31:38.363Z,19.80
2022-08-26T20:34:06.766Z,19.80
2022-08-26T20:36:35.537Z,19.70
2022-08-26T20:39:04.073Z,19.80
2022-08-26T20:41:32.977Z,19.80
2022-08-26T20:44:03.060Z,19.70
2022-08-26T20:46:31.532Z,19.70
2022-08-26T20:48:59.779Z,19.70
2022-08-26T20:51:29.299Z,19.60
2022-08-26T20:53:57.616Z,19.60
2022-08-26T20:56:26.048Z,19.60
2022-08-26T20:58:58.827Z,19.60
2022-08-26T21:01:34.554Z,19.60
2022-08-26T21:04:05.243Z,19.50
2022-08-26T21:06:34.809Z,19.50
2022-08-26T21:09:03.442Z,19.50
2022-08-26T21:11:32.194Z,19.50
2022-08-26T21:14:07.086Z,19.50
2022-08-26T21:16:47.096Z,19.50
2022-08-26T21:19:17.685Z,19.60
2022-08-26T21:21:46.902Z,19.70
2022-08-26T21:24:15.673Z,19.60
2022-08-26T21:26:44.073Z,19.60
2022-08-26T21:29:13.657Z,19.60
2022-08-26T21:31:46.486Z,19.60
2022-08-26T21:34:18.804Z,19.60
2022-08-26T21:36:47.883Z,19.60
2022-08-26T21:39:17.301Z,19.60
2022-08-26T21:41:47.367Z,19.50
2022-08-26T21:44:17.899Z,19.40
2022-08-26T21:46:47.182Z,19.50
2022-08-26T21:49:17.496Z,19.50
2022-08-26T21:51:48.805Z,19.50
2022-08-26T21:54:18.152Z,19.40
2022-08-26T21:56:47.696Z,19.40
2022-08-26T21:59:17.973Z,19.50
2022-08-26T22:01:46.293Z,19.40
2022-08-26T22:04:15.946Z,19.30
2022-08-26T22:06:47.112Z,19.30
2022-08-26T22:09:17.042Z,19.30
2022-08-26T22:11:46.423Z,19.30
2022-08-26T22:14:16.013Z,19.20
2022-08-26T22:16:50.064Z,19.20
2022-08-26T22:19:21.044Z,19.20
2022-08-26T22:21:53.559Z,19.20
2022-08-26T22:24:23.951Z,19.10
2022-08-26T22:26:52.807Z,19.10
2022-08-26T22:29:21.361Z,19.10
2022-08-26T22:31:49.646Z,19.10
2022-08-26T22:34:21.209Z,19.00
2022-08-26T22:36:50.814Z,19.00
2022-08-26T22:39:22.863Z,19.10
2022-08-26T22:41:51.229Z,19.00
2022-08-26T22:44:21.502Z,18.90
2022-08-26T22:46:51.629Z,19.00
2022-08-26T22:49:21.769Z,18.90
2022-08-26T22:51:51.059Z,18.80
2022-08-26T22:54:19.441Z,18.90
2022-08-26T22:56:47.624Z,18.80
2022-08-26T22:59:16.353Z,18.90
2022-08-26T23:01:46.877Z,18.80
2022-08-26T23:04:15.710Z,18.70
2022-08-26T23:06:47.767Z,18.70
2022-08-26T23:09:18.238Z,18.70
